createdAt,value
2023-01-01T00:01:55.939Z,18.77
2023-01-01T00:04:24.153Z,19.07
2023-01-01T00:06:52.264Z,17.53
2023-01-01T00:09:37.640Z,20.07
2023-01-01T00:12:07.614Z,20.10
2023-01-01T00:14:35.677Z,20.03
2023-01-01T00:17:03.736Z,20.83
2023-01-01T00:19:31.998Z,25.03
2023-01-01T00:22:02.132Z,18.60
2023-01-01T00:24:38.028Z,18.47
2023-01-01T00:27:07.566Z,17.57
2023-01-01T00:29:35.780Z,17.97
2023-01-01T00:32:05.625Z,17.60
2023-01-01T00:34:34.420Z,17.70
2023-01-01T00:37:02.517Z,18.13
2023-01-01T00:39:30.628Z,19.07
2023-01-01T00:41:58.654Z,17.83
2023-01-01T00:44:28.130Z,18.13
2023-01-01T00:46:56.208Z,19.33
2023-01-01T00:49:24.410Z,18.50
2023-01-01T00:51:52.485Z,18.93
2023-01-01T00:54:20.652Z,18.87
2023-01-01T00:56:48.804Z,18.77
2023-01-01T00:59:16.907Z,17.50
2023-01-01T01:01:46.423Z,17.77
2023-01-01T01:04:14.475Z,17.80
2023-01-01T01:06:42.585Z,18.10
2023-01-01T01:09:10.618Z,17.13
2023-01-01T01:11:38.713Z,17.07
2023-01-01T01:14:07.063Z,17.30
2023-01-01T01:16:35.551Z,17.93
2023-01-01T01:19:06.637Z,17.20
2023-01-01T01:21:35.903Z,17.43
2023-01-01T01:24:04.908Z,24.87
2023-01-01T01:26:35.449Z,17.60
2023-01-01T01:29:04.070Z,17.07
2023-01-01T01:31:34.596Z,18.80
2023-01-01T01:34:06.025Z,16.77
2023-01-01T01:36:34.291Z,17.40
2023-01-01T01:39:02.327Z,17.40
2023-01-01T01:41:30.362Z,17.90
2023-01-01T01:44:01.337Z,17.70
2023-01-01T01:46:33.854Z,18.10
2023-01-01T01:49:06.923Z,17.27
2023-01-01T01:51:37.819Z,17.83
2023-01-01T01:54:11.539Z,18.10
2023-01-01T01:56:44.598Z,17.80
2023-01-01T01:59:12.962Z,17.77
2023-01-01T02:01:42.226Z,18.20
2023-01-01T02:04:12.676Z,17.80
2023-01-01T02:06:41.179Z,17.70
2023-01-01T02:09:10.241Z,17.80
2023-01-01T02:11:38.562Z,18.20
2023-01-01T02:14:07.275Z,19.30
2023-01-01T02:16:42.392Z,18.87
2023-01-01T02:19:19.409Z,18.40
2023-01-01T02:22:01.200Z,18.70
2023-01-01T02:24:50.795Z,18.63
2023-01-01T02:27:27.319Z,18.17
2023-01-01T02:30:00.812Z,17.53
2023-01-01T02:32:32.301Z,17.27
2023-01-01T02:35:24.896Z,18.17
2023-01-01T02:37:57.473Z,18.00
2023-01-01T02:40:27.957Z,17.87
2023-01-01T02:42:58.433Z,18.20
2023-01-01T02:45:27.931Z,18.07
2023-01-01T02:47:55.920Z,17.87
2023-01-01T02:50:27.081Z,17.43
2023-01-01T02:53:28.569Z,17.70
2023-01-01T02:56:05.515Z,18.87
2023-01-01T02:58:54.576Z,20.47
2023-01-01T03:01:31.080Z,18.50
2023-01-01T03:04:08.119Z,18.17
2023-01-01T03:06:43.058Z,18.77
2023-01-01T03:09:19.471Z,19.87
2023-01-01T03:11:55.556Z,18.47
2023-01-01T03:14:32.027Z,18.70
2023-01-01T03:17:06.448Z,18.87
2023-01-01T03:19:38.518Z,19.50
2023-01-01T03:22:09.164Z,19.93
2023-01-01T03:24:42.744Z,17.87
2023-01-01T03:27:14.857Z,18.20
2023-01-01T03:29:44.513Z,18.97
2023-01-01T03:32:19.847Z,22.67
2023-01-01T03:34:53.144Z,18.63
2023-01-01T03:37:26.161Z,18.60
2023-01-01T03:39:58.116Z,17.93
2023-01-01T03:42:33.376Z,20.27
2023-01-01T03:45:06.000Z,18.47
2023-01-01T03:47:35.543Z,18.30
2023-01-01T03:50:04.896Z,18.60
2023-01-01T03:52:44.580Z,18.90
2023-01-01T03:55:19.395Z,18.57
2023-01-01T03:57:56.435Z,19.67
2023-01-01T04:00:28.067Z,18.70
2023-01-01T04:03:01.519Z,18.63
2023-01-01T04:05:30.865Z,18.43
2023-01-01T04:08:02.940Z,18.47
2023-01-01T04:10:33.402Z,19.60
2023-01-01T04:13:04.743Z,20.20
2023-01-01T04:15:35.955Z,18.50
2023-01-01T04:18:05.735Z,19.10
2023-01-01T04:20:33.968Z,21.40
2023-01-01T04:23:03.156Z,20.53
2023-01-01T04:25:31.672Z,22.67
2023-01-01T04:28:03.302Z,23.50
2023-01-01T04:30:31.560Z,23.37
2023-01-01T04:32:59.527Z,23.73
2023-01-01T04:35:28.868Z,24.53
2023-01-01T04:37:56.944Z,23.50
2023-01-01T04:40:25.024Z,23.23
2023-01-01T04:42:55.108Z,22.97
2023-01-01T04:45:23.310Z,22.73
2023-01-01T04:47:51.382Z,22.80
2023-01-01T04:50:19.440Z,21.30
2023-01-01T04:52:51.354Z,21.07
2023-01-01T04:55:20.483Z,20.63
2023-01-01T04:57:48.600Z,20.73
2023-01-01T05:00:17.481Z,20.60
2023-01-01T05:02:45.587Z,20.40
2023-01-01T05:05:13.697Z,20.40
2023-01-01T05:07:41.830Z,19.63
2023-01-01T05:10:11.418Z,20.07
2023-01-01T05:12:39.478Z,19.43
2023-01-01T05:15:08.778Z,20.70
2023-01-01T05:17:36.855Z,20.00
2023-01-01T05:20:05.260Z,19.40
2023-01-01T05:22:33.287Z,19.93
2023-01-01T05:25:01.165Z,19.30
2023-01-01T05:27:30.592Z,19.57
2023-01-01T05:29:58.823Z,19.40
2023-01-01T05:32:26.931Z,18.73
2023-01-01T05:34:56.256Z,18.70
2023-01-01T05:37:24.268Z,18.67
2023-01-01T05:39:52.360Z,18.70
2023-01-01T05:42:20.462Z,18.67
2023-01-01T05:44:49.854Z,19.80
2023-01-01T05:47:18.777Z,19.60
2023-01-01T05:49:47.124Z,19.17
2023-01-01T05:52:15.216Z,18.67
2023-01-01T05:54:43.263Z,18.30
2023-01-01T05:57:11.298Z,18.27
2023-01-01T05:59:39.325Z,17.80
2023-01-01T06:02:08.859Z,18.40
2023-01-01T06:04:36.989Z,17.50
2023-01-01T06:07:05.040Z,18.70
2023-01-01T06:09:33.130Z,17.77
2023-01-01T06:12:01.172Z,18.30
2023-01-01T06:14:29.231Z,18.70
2023-01-01T06:16:57.275Z,18.33
2023-01-01T06:19:26.627Z,18.40
2023-01-01T06:21:54.683Z,18.40
2023-01-01T06:24:22.784Z,18.30
2023-01-01T06:26:50.856Z,18.07
2023-01-01T06:29:18.925Z,17.73
2023-01-01T06:31:46.960Z,17.70
2023-01-01T06:34:15.058Z,17.90
2023-01-01T06:36:44.500Z,18.00
2023-01-01T06:39:12.561Z,18.53
2023-01-01T06:41:40.635Z,17.93
2023-01-01T06:44:08.644Z,18.20
2023-01-01T06:46:37.874Z,17.87
2023-01-01T06:49:07.881Z,17.47
2023-01-01T06:51:39.373Z,17.43
2023-01-01T06:54:09.379Z,17.50
2023-01-01T06:56:37.977Z,18.07
2023-01-01T06:59:06.405Z,17.90
2023-01-01T07:01:37.485Z,18.40
2023-01-01T07:04:08.611Z,17.80
2023-01-01T07:06:37.518Z,18.03
2023-01-01T07:09:06.578Z,17.97
2023-01-01T07:11:36.541Z,18.20
2023-01-01T07:14:04.942Z,18.30
2023-01-01T07:16:33.221Z,18.50
2023-01-01T07:19:01.348Z,18.40
2023-01-01T07:21:31.809Z,17.80
2023-01-01T07:24:01.406Z,18.23
2023-01-01T07:26:30.695Z,18.40
2023-01-01T07:29:07.635Z,18.27
2023-01-01T07:31:37.498Z,18.40
2023-01-01T07:34:06.240Z,18.27
2023-01-01T07:36:34.526Z,18.07
2023-01-01T07:39:02.630Z,18.50
2023-01-01T07:41:30.737Z,18.17
2023-01-01T07:44:00.190Z,18.57
2023-01-01T07:46:28.746Z,19.10
2023-01-01T07:48:57.124Z,18.70
2023-01-01T07:51:25.142Z,18.40
2023-01-01T07:53:53.220Z,18.20
2023-01-01T07:56:21.402Z,17.80
2023-01-01T07:58:49.429Z,19.33
2023-01-01T08:01:19.298Z,17.73
2023-01-01T08:03:53.298Z,17.93
2023-01-01T08:06:22.434Z,17.83
2023-01-01T08:08:50.593Z,18.13
2023-01-01T08:11:18.780Z,17.97
2023-01-01T08:13:46.907Z,17.97
2023-01-01T08:16:15.027Z,17.70
2023-01-01T08:18:44.487Z,17.63
2023-01-01T08:21:12.577Z,17.27
2023-01-01T08:23:40.755Z,18.10
2023-01-01T08:26:08.909Z,17.77
2023-01-01T08:28:37.177Z,18.07
2023-01-01T08:31:05.521Z,17.77
2023-01-01T08:33:33.591Z,18.50
2023-01-01T08:36:03.192Z,18.10
2023-01-01T08:38:31.178Z,17.67
2023-01-01T08:40:59.158Z,18.37
2023-01-01T08:43:27.267Z,18.43
2023-01-01T08:45:55.311Z,22.40
2023-01-01T08:48:30.411Z,18.33
2023-01-01T08:51:01.152Z,18.50
2023-01-01T08:53:31.423Z,18.40
2023-01-01T08:56:00.146Z,18.33
2023-01-01T08:58:28.607Z,18.00
2023-01-01T09:00:56.683Z,18.90
2023-01-01T09:03:24.961Z,18.97
2023-01-01T09:05:53.472Z,19.30
2023-01-01T09:08:22.022Z,19.00
2023-01-01T09:10:52.099Z,19.40
2023-01-01T09:13:21.819Z,19.03
2023-01-01T09:15:50.019Z,19.27
2023-01-01T09:18:18.140Z,19.70
2023-01-01T09:20:46.164Z,19.50
2023-01-01T09:23:14.652Z,21.07
2023-01-01T09:25:42.610Z,19.10
2023-01-01T09:28:14.159Z,19.33
2023-01-01T09:30:42.653Z,19.50
2023-01-01T09:33:10.885Z,19.03
2023-01-01T09:35:39.415Z,19.87
2023-01-01T09:38:07.541Z,19.40
2023-01-01T09:40:51.360Z,18.97
2023-01-01T09:43:30.824Z,19.07
2023-01-01T09:46:02.509Z,19.17
2023-01-01T09:48:32.632Z,18.70
2023-01-01T09:51:02.199Z,19.00
2023-01-01T09:53:35.256Z,19.33
2023-01-01T09:56:05.315Z,19.37
2023-01-01T09:58:36.878Z,19.03
2023-01-01T10:01:15.586Z,19.40
2023-01-01T10:03:49.610Z,19.80
2023-01-01T10:06:23.863Z,20.00
2023-01-01T10:09:08.698Z,20.00
2023-01-01T10:11:44.571Z,21.00
2023-01-01T10:14:23.504Z,21.90
2023-01-01T10:16:55.647Z,20.47
2023-01-01T10:19:33.101Z,20.17
2023-01-01T10:22:04.679Z,20.93
2023-01-01T10:24:40.787Z,20.70
2023-01-01T10:27:12.200Z,20.03
2023-01-01T10:29:45.176Z,21.53
2023-01-01T10:32:21.088Z,19.80
2023-01-01T10:34:50.484Z,20.77
2023-01-01T10:37:18.743Z,19.70
2023-01-01T10:39:48.712Z,19.47
2023-01-01T10:42:17.585Z,19.13
2023-01-01T10:44:48.027Z,19.80
2023-01-01T10:47:28.366Z,19.70
2023-01-01T10:49:59.028Z,19.60
2023-01-01T10:52:31.996Z,19.80
2023-01-01T10:55:01.058Z,19.23
2023-01-01T10:57:35.377Z,21.73
2023-01-01T11:00:24.085Z,19.53
2023-01-01T11:03:19.271Z,20.17
2023-01-01T11:06:11.771Z,19.63
2023-01-01T11:08:48.133Z,21.40
2023-01-01T11:11:22.421Z,20.80
2023-01-01T11:13:55.963Z,21.50
2023-01-01T11:16:26.695Z,20.20
2023-01-01T11:19:03.085Z,21.40
2023-01-01T11:21:31.622Z,21.70
2023-01-01T11:24:20.218Z,20.57
2023-01-01T11:26:54.300Z,20.60
2023-01-01T11:29:27.131Z,20.80
2023-01-01T11:31:58.092Z,20.67
2023-01-01T11:34:33.213Z,21.37
2023-01-01T11:37:24.957Z,21.27
2023-01-01T11:39:54.690Z,21.40
2023-01-01T11:42:24.817Z,21.60
2023-01-01T11:44:55.807Z,22.20
2023-01-01T11:47:30.000Z,21.67
2023-01-01T11:50:01.667Z,22.40
2023-01-01T11:52:40.893Z,22.10
2023-01-01T11:55:21.246Z,22.07
2023-01-01T11:57:58.526Z,23.30
2023-01-01T12:00:26.612Z,22.10
2023-01-01T12:03:00.614Z,24.20
2023-01-01T12:05:42.938Z,22.67
2023-01-01T12:08:17.745Z,22.20
2023-01-01T12:10:51.735Z,21.30
2023-01-01T12:13:23.268Z,21.70
2023-01-01T12:16:01.844Z,21.60
2023-01-01T12:18:40.551Z,21.37
2023-01-01T12:21:15.715Z,21.60
2023-01-01T12:23:43.777Z,21.90
2023-01-01T12:26:19.271Z,20.70
2023-01-01T12:29:12.280Z,19.93
2023-01-01T12:31:57.373Z,19.93
2023-01-01T12:34:32.433Z,20.33
2023-01-01T12:37:05.252Z,20.50
2023-01-01T12:40:01.693Z,20.00
2023-01-01T12:42:41.162Z,19.70
2023-01-01T12:45:34.077Z,20.40
2023-01-01T12:48:09.912Z,19.33
2023-01-01T12:50:55.101Z,19.10
2023-01-01T12:53:31.849Z,19.37
2023-01-01T12:56:23.185Z,19.10
2023-01-01T12:58:56.887Z,18.97
2023-01-01T13:01:33.151Z,19.30
2023-01-01T13:04:03.869Z,19.40
2023-01-01T13:06:39.777Z,18.80
2023-01-01T13:09:12.583Z,20.27
2023-01-01T13:11:45.209Z,20.27
2023-01-01T13:14:14.135Z,19.50
2023-01-01T13:16:43.370Z,19.40
2023-01-01T13:19:26.567Z,18.23
2023-01-01T13:21:56.025Z,18.23
2023-01-01T13:24:25.776Z,18.70
2023-01-01T13:26:54.652Z,17.97
2023-01-01T13:29:36.468Z,19.83
2023-01-01T13:32:11.526Z,18.50
2023-01-01T13:35:02.827Z,18.93
2023-01-01T13:37:45.013Z,18.47
2023-01-01T13:40:34.862Z,18.50
2023-01-01T13:43:07.974Z,19.20
2023-01-01T13:49:01.855Z,18.97
2023-01-01T13:52:07.045Z,18.73
2023-01-01T13:55:05.851Z,19.93
2023-01-01T13:57:56.412Z,18.87
2023-01-01T14:00:26.655Z,18.50
2023-01-01T14:02:59.413Z,19.53
2023-01-01T14:05:33.834Z,20.23
2023-01-01T14:08:02.080Z,18.83
2023-01-01T14:10:33.023Z,18.17
2023-01-01T14:13:17.092Z,18.17
2023-01-01T14:15:54.162Z,19.03
2023-01-01T14:18:26.437Z,18.00
2023-01-01T14:20:55.018Z,20.00
2023-01-01T14:23:31.118Z,18.90
2023-01-01T14:26:02.281Z,19.83
2023-01-01T14:28:32.153Z,18.63
2023-01-01T14:31:08.744Z,18.63
2023-01-01T14:33:40.182Z,18.87
2023-01-01T14:36:17.604Z,19.80
2023-01-01T14:38:47.509Z,18.77
2023-01-01T14:41:21.204Z,19.17
2023-01-01T14:43:51.627Z,20.10
2023-01-01T14:46:23.269Z,19.00
2023-01-01T14:48:53.510Z,20.17
2023-01-01T14:51:24.463Z,19.67
2023-01-01T14:53:54.747Z,20.50
2023-01-01T14:56:28.079Z,20.70
2023-01-01T14:59:04.418Z,19.23
2023-01-01T15:01:32.653Z,19.80
2023-01-01T15:04:02.291Z,20.60
2023-01-01T15:06:32.099Z,20.53
2023-01-01T15:09:00.201Z,18.90
2023-01-01T15:11:29.647Z,19.70
2023-01-01T15:14:00.997Z,19.43
2023-01-01T15:16:37.950Z,19.03
2023-01-01T15:19:19.284Z,19.00
2023-01-01T15:21:47.595Z,50.17
2023-01-01T15:24:20.380Z,19.70
2023-01-01T15:26:53.731Z,19.20
2023-01-01T15:29:29.075Z,19.90
2023-01-01T15:32:00.055Z,21.13
2023-01-01T15:34:32.288Z,20.23
2023-01-01T15:37:10.334Z,22.03
2023-01-01T15:39:47.735Z,20.87
2023-01-01T15:42:38.073Z,23.33
2023-01-01T15:45:24.516Z,20.67
2023-01-01T15:47:55.674Z,21.97
2023-01-01T15:50:26.045Z,22.70
2023-01-01T15:52:56.922Z,21.60
2023-01-01T15:55:28.414Z,22.60
2023-01-01T15:57:59.036Z,22.67
2023-01-01T16:00:29.641Z,22.13
2023-01-01T16:03:01.430Z,22.40
2023-01-01T16:05:30.957Z,22.47
2023-01-01T16:08:01.349Z,22.03
2023-01-01T16:10:29.843Z,22.50
2023-01-01T16:12:59.268Z,21.20
2023-01-01T16:15:28.082Z,22.00
2023-01-01T16:17:56.618Z,21.07
2023-01-01T16:20:25.423Z,21.53
2023-01-01T16:22:53.579Z,21.10
2023-01-01T16:25:23.538Z,21.80
2023-01-01T16:27:51.665Z,21.97
2023-01-01T16:30:25.846Z,21.90
2023-01-01T16:32:53.928Z,22.50
2023-01-01T16:35:22.214Z,21.43
2023-01-01T16:37:50.273Z,21.37
2023-01-01T16:40:18.605Z,22.70
2023-01-01T16:42:46.619Z,21.00
2023-01-01T16:45:18.836Z,21.10
2023-01-01T16:47:50.157Z,21.60
2023-01-01T16:50:18.651Z,21.42
2023-01-01T16:52:46.684Z,20.77
2023-01-01T16:55:15.308Z,20.80
2023-01-01T16:57:43.629Z,20.70
2023-01-01T17:00:12.956Z,23.30
2023-01-01T17:02:41.198Z,21.00
2023-01-01T17:05:11.494Z,21.60
2023-01-01T17:07:39.550Z,21.00
2023-01-01T17:10:08.351Z,22.53
2023-01-01T17:12:36.422Z,22.05
2023-01-01T17:15:04.879Z,21.57
2023-01-01T17:17:32.944Z,21.10
2023-01-01T17:20:01.056Z,22.27
2023-01-01T17:22:34.192Z,22.63
2023-01-01T17:25:02.824Z,22.57
2023-01-01T17:27:31.928Z,24.42
2023-01-01T17:30:00.177Z,33.40
2023-01-01T17:32:28.386Z,24.80
2023-01-01T17:34:56.441Z,24.63
2023-01-01T17:37:24.447Z,26.33
2023-01-01T17:39:54.196Z,26.37
2023-01-01T17:42:22.270Z,28.90
2023-01-01T17:44:50.347Z,28.30
2023-01-01T17:47:18.519Z,31.50
2023-01-01T17:49:46.544Z,33.07
2023-01-01T17:52:14.558Z,31.20
2023-01-01T17:54:42.647Z,32.57
2023-01-01T17:57:12.057Z,33.73
2023-01-01T17:59:40.156Z,35.60
2023-01-01T18:02:13.024Z,35.80
2023-01-01T18:04:44.116Z,37.57
2023-01-01T18:07:12.190Z,40.13
2023-01-01T18:09:40.529Z,42.40
2023-01-01T18:12:08.796Z,42.40
2023-01-01T18:14:38.271Z,44.47
2023-01-01T18:17:06.334Z,47.00
2023-01-01T18:19:35.398Z,48.17
2023-01-01T18:22:04.124Z,48.17
2023-01-01T18:24:32.203Z,46.80
2023-01-01T18:27:00.314Z,48.73
2023-01-01T18:29:28.351Z,46.63
2023-01-01T18:31:57.778Z,49.23
2023-01-01T18:34:26.617Z,49.90
2023-01-01T18:36:56.265Z,50.27
2023-01-01T18:39:29.437Z,51.60
2023-01-01T18:42:29.481Z,50.27
2023-01-01T18:45:08.568Z,51.13
2023-01-01T18:47:38.049Z,51.50
2023-01-01T18:50:15.813Z,55.30
2023-01-01T18:52:43.851Z,53.43
2023-01-01T18:55:15.103Z,49.33
2023-01-01T18:57:44.477Z,48.67
2023-01-01T19:00:19.736Z,48.33
2023-01-01T19:02:56.148Z,50.30
2023-01-01T19:05:27.313Z,50.87
2023-01-01T19:08:02.737Z,49.53
2023-01-01T19:10:36.664Z,49.73
2023-01-01T19:13:19.951Z,51.73
2023-01-01T19:15:50.511Z,52.03
2023-01-01T19:18:22.226Z,53.30
2023-01-01T19:20:51.785Z,53.33
2023-01-01T19:23:23.187Z,53.07
2023-01-01T19:25:51.664Z,55.37
2023-01-01T19:28:36.590Z,56.63
2023-01-01T19:31:06.457Z,57.13
2023-01-01T19:33:35.939Z,56.77
2023-01-01T19:36:04.207Z,57.90
2023-01-01T19:38:32.271Z,58.83
2023-01-01T19:41:00.320Z,58.00
2023-01-01T19:43:28.343Z,58.83
2023-01-01T19:45:56.377Z,59.87
2023-01-01T19:48:24.450Z,56.63
2023-01-01T19:50:53.789Z,58.03
2023-01-01T19:53:22.083Z,61.57
2023-01-01T19:55:50.458Z,57.60
2023-01-01T19:58:19.979Z,61.17
2023-01-01T20:00:48.059Z,62.33
2023-01-01T20:06:05.880Z,62.10
2023-01-01T20:08:34.160Z,61.87
2023-01-01T20:11:02.366Z,65.13
2023-01-01T20:13:30.383Z,61.27
2023-01-01T20:15:58.603Z,62.47
2023-01-01T20:18:26.781Z,62.37
2023-01-01T20:21:12.418Z,66.03
2023-01-01T20:23:42.019Z,68.00
2023-01-01T20:26:10.239Z,71.73
2023-01-01T20:28:55.644Z,71.70
2023-01-01T20:31:23.733Z,70.67
2023-01-01T20:33:51.843Z,69.23
2023-01-01T20:36:37.539Z,65.20
2023-01-01T20:39:06.949Z,65.53
2023-01-01T20:41:34.962Z,65.23
2023-01-01T20:44:02.908Z,64.27
2023-01-01T20:46:31.073Z,63.17
2023-01-01T20:48:59.508Z,65.40
2023-01-01T20:51:27.626Z,67.53
2023-01-01T20:53:55.831Z,69.03
2023-01-01T20:56:25.214Z,65.10
2023-01-01T20:58:59.539Z,70.70
2023-01-01T21:01:30.189Z,64.90
2023-01-01T21:03:58.427Z,66.93
2023-01-01T21:06:26.479Z,67.87
2023-01-01T21:08:54.628Z,67.87
2023-01-01T21:11:22.619Z,70.07
2023-01-01T21:13:52.197Z,66.13
2023-01-01T21:16:21.999Z,69.43
2023-01-01T21:18:50.327Z,72.30
2023-01-01T21:21:21.868Z,72.10
2023-01-01T21:23:51.381Z,73.90
2023-01-01T21:26:26.317Z,70.87
2023-01-01T21:28:55.881Z,72.97
2023-01-01T21:31:23.917Z,72.23
2023-01-01T21:33:51.962Z,72.60
2023-01-01T21:36:22.751Z,75.17
2023-01-01T21:38:52.681Z,71.50
2023-01-01T21:41:23.806Z,72.10
2023-01-01T21:43:57.283Z,71.13
2023-01-01T21:46:35.943Z,71.67
2023-01-01T21:49:16.950Z,72.70
2023-01-01T21:51:50.846Z,71.50
2023-01-01T21:54:23.109Z,74.90
2023-01-01T21:56:55.138Z,70.60
2023-01-01T21:59:36.983Z,66.97
2023-01-01T22:02:33.292Z,67.53
2023-01-01T22:05:04.000Z,66.27
2023-01-01T22:10:26.425Z,66.80
2023-01-01T22:13:00.054Z,65.90
2023-01-01T22:15:39.010Z,68.77
2023-01-01T22:18:22.808Z,70.40
2023-01-01T22:20:51.583Z,75.93
2023-01-01T22:23:34.792Z,77.13
2023-01-01T22:26:05.895Z,76.97
2023-01-01T22:28:41.959Z,79.50
2023-01-01T22:31:14.815Z,82.57
2023-01-01T22:33:46.007Z,82.90
2023-01-01T22:36:17.086Z,84.70
2023-01-01T22:38:45.702Z,85.17
2023-01-01T22:41:14.657Z,81.37
2023-01-01T22:43:44.912Z,82.03
2023-01-01T22:46:18.323Z,79.83
2023-01-01T22:48:47.415Z,76.60
2023-01-01T22:51:21.169Z,77.87
2023-01-01T22:53:49.302Z,75.30
2023-01-01T22:56:17.703Z,75.60
2023-01-01T22:58:45.788Z,77.77
2023-01-01T23:01:15.297Z,78.60
2023-01-01T23:03:43.379Z,83.00
2023-01-01T23:06:11.665Z,80.23
2023-01-01T23:08:39.763Z,81.30
2023-01-01T23:11:08.040Z,82.73
2023-01-01T23:13:53.701Z,79.37
2023-01-01T23:16:23.223Z,79.67
2023-01-01T23:18:51.289Z,80.03
2023-01-01T23:21:26.670Z,79.70
2023-01-01T23:23:56.706Z,75.27
2023-01-01T23:26:25.272Z,77.53
2023-01-01T23:28:54.135Z,78.83
2023-01-01T23:31:25.901Z,83.37
2023-01-01T23:33:54.891Z,81.93
2023-01-01T23:36:23.402Z,82.57
2023-01-01T23:38:51.438Z,86.83
2023-01-01T23:41:19.627Z,85.73
2023-01-01T23:43:47.729Z,83.27
2023-01-01T23:46:16.519Z,83.43
2023-01-01T23:48:47.444Z,84.80
2023-01-01T23:51:17.297Z,84.40
2023-01-01T23:53:45.590Z,81.70
2023-01-01T23:56:13.964Z,81.40
2023-01-01T23:58:42.012Z,83.03
